KPEA

Details ICAO KPEA
Name PELLA MUNI
Region United States
Timezone America/Chicago (UTC-5.0)
Plans Departing 19
Arriving 9
Stats Elevation 885 ft / 270 m (AMSL)
Location 41.401221° -92.945865°
Runways 1
Magnetic Variation 0.260° E
Sunrise 2018-05-26 10:45:24 UTC / 2018-05-26 05:45:24 Local
Sunset 2018-05-27 01:35:11 UTC / 2018-05-26 20:35:11 Local
Advertisement - Login to hide

Runways

ID Width Length Bearing (true) Bearing (mag) Surface Threshold Offset Overrun Length
16 75 ft / 23 m 5,408 ft / 1,648 m 167.50° 167.24° Concrete 200 ft / 61 m 0 ft / 0 m
34 75 ft / 23 m 5,408 ft / 1,648 m 347.51° 347.25° Concrete 200 ft / 61 m 0 ft / 0 m

Map

Weather


0- 5 10 15 20 25 30 35+ Temperature / ° C

Clouds and Precipitation
Forecast for 2018-05-26 12:00 UTC. Updated 3 hours ago

Ground ~20,000 ft ~40,000 ft Winds

METAR

KPEA 261435Z AUTO 24005KT 10SM CLR 26/20 A2980 RMK AO2 T02620203

TAF

Not found

Frequencies

Recorded 118.87 MHz AWOS 3
Approach 123.90 MHz DES MOINES APP/DEP
Unicom 122.80 MHz CTAF/UNICOM
Warning: Do not use this data for real-world aviation or navigation. No guarantee of current accuracy is given.